createdAt,value
2023-01-07T00:01:43.455Z,33.75
2023-01-07T00:04:14.094Z,33.83
2023-01-07T00:06:44.231Z,34.25
2023-01-07T00:09:16.527Z,35.75
2023-01-07T00:11:48.015Z,36.45
2023-01-07T00:14:18.858Z,36.60
2023-01-07T00:16:47.154Z,38.90
2023-01-07T00:19:21.835Z,38.45
2023-01-07T00:21:50.127Z,40.38
2023-01-07T00:24:20.853Z,42.47
2023-01-07T00:26:50.502Z,38.78
2023-01-07T00:29:19.386Z,39.75
2023-01-07T00:31:48.642Z,39.83
2023-01-07T00:34:17.863Z,41.70
2023-01-07T00:36:47.652Z,38.42
2023-01-07T00:39:22.297Z,40.95
2023-01-07T00:42:16.002Z,41.83
2023-01-07T00:44:46.472Z,38.67
2023-01-07T00:47:26.602Z,40.40
2023-01-07T00:50:18.575Z,41.13
2023-01-07T00:52:56.723Z,41.22
2023-01-07T00:55:33.065Z,38.95
2023-01-07T00:58:15.620Z,38.35
2023-01-07T01:00:58.574Z,37.22
2023-01-07T01:03:39.224Z,36.25
2023-01-07T01:06:16.276Z,37.63
2023-01-07T01:08:47.687Z,38.55
2023-01-07T01:11:28.125Z,34.45
2023-01-07T01:13:57.811Z,39.38
2023-01-07T01:16:28.043Z,41.05
2023-01-07T01:19:02.100Z,37.33
2023-01-07T01:21:31.780Z,39.05
2023-01-07T01:24:09.785Z,36.67
2023-01-07T01:26:48.391Z,37.67
2023-01-07T01:29:18.646Z,39.60
2023-01-07T01:31:59.819Z,37.83
2023-01-07T01:34:34.085Z,40.75
2023-01-07T01:37:07.346Z,36.83
2023-01-07T01:39:38.238Z,38.13
2023-01-07T01:42:14.734Z,41.45
2023-01-07T01:44:51.598Z,39.33
2023-01-07T01:47:32.889Z,38.22
2023-01-07T01:50:05.489Z,35.90
2023-01-07T01:52:39.034Z,39.08
2023-01-07T01:55:09.794Z,35.63
2023-01-07T01:57:39.768Z,33.90
2023-01-07T02:00:11.405Z,41.35
2023-01-07T02:02:47.298Z,36.05
2023-01-07T02:05:16.657Z,35.40
2023-01-07T02:07:44.732Z,35.13
2023-01-07T02:10:16.152Z,36.88
2023-01-07T02:12:54.905Z,37.50
2023-01-07T02:15:34.293Z,36.88
2023-01-07T02:18:18.953Z,36.28
2023-01-07T02:21:03.366Z,38.00
2023-01-07T02:24:28.568Z,36.13
2023-01-07T02:27:10.665Z,36.17
2023-01-07T02:30:14.851Z,35.97
2023-01-07T02:33:07.140Z,36.28
2023-01-07T02:35:59.748Z,34.13
2023-01-07T02:38:35.731Z,32.92
2023-01-07T02:41:11.090Z,36.65
2023-01-07T02:43:48.282Z,33.22
2023-01-07T02:46:22.837Z,32.20
2023-01-07T02:48:53.133Z,32.95
2023-01-07T02:51:21.699Z,35.13
2023-01-07T02:53:50.512Z,31.38
2023-01-07T02:56:29.915Z,33.45
2023-01-07T02:59:36.724Z,33.10
2023-01-07T03:02:31.825Z,33.80
2023-01-07T03:05:28.365Z,32.15
2023-01-07T03:08:08.811Z,31.40
2023-01-07T03:10:43.664Z,34.78
2023-01-07T03:13:17.718Z,33.63
2023-01-07T03:15:49.229Z,34.33
2023-01-07T03:18:19.775Z,31.10
2023-01-07T03:20:54.485Z,33.65
2023-01-07T03:23:26.377Z,32.00
2023-01-07T03:25:56.798Z,34.92
2023-01-07T03:28:27.945Z,30.83
2023-01-07T03:30:58.348Z,31.30
2023-01-07T03:33:32.329Z,35.15
2023-01-07T03:36:03.851Z,31.17
2023-01-07T03:38:32.413Z,31.27
2023-01-07T03:41:00.755Z,32.17
2023-01-07T03:43:28.559Z,33.47
2023-01-07T03:45:59.126Z,32.13
2023-01-07T03:48:28.753Z,33.47
2023-01-07T03:50:57.405Z,32.92
2023-01-07T03:53:26.923Z,34.38
2023-01-07T03:55:54.989Z,32.83
2023-01-07T03:58:23.051Z,32.65
2023-01-07T04:00:55.450Z,29.67
2023-01-07T04:03:23.639Z,31.33
2023-01-07T04:05:51.679Z,29.42
2023-01-07T04:08:20.014Z,30.90
2023-01-07T04:10:49.401Z,30.90
2023-01-07T04:13:19.087Z,28.83
2023-01-07T04:15:49.464Z,31.25
2023-01-07T04:18:17.553Z,28.38
2023-01-07T04:20:48.006Z,29.65
2023-01-07T04:23:17.542Z,31.98
2023-01-07T04:25:49.510Z,28.42
2023-01-07T04:28:21.052Z,29.88
2023-01-07T04:30:49.236Z,28.45
2023-01-07T04:33:17.448Z,27.38
2023-01-07T04:35:47.950Z,27.70
2023-01-07T04:38:16.868Z,30.30
2023-01-07T04:40:44.993Z,27.60
2023-01-07T04:43:15.431Z,26.40
2023-01-07T04:45:43.514Z,24.30
2023-01-07T04:48:11.715Z,27.90
2023-01-07T04:50:40.268Z,26.35
2023-01-07T04:53:09.190Z,29.17
2023-01-07T04:55:39.039Z,26.27
2023-01-07T04:58:07.112Z,27.42
2023-01-07T05:00:36.531Z,26.75
2023-01-07T05:03:05.909Z,25.10
2023-01-07T05:05:34.767Z,26.30
2023-01-07T05:08:03.702Z,26.60
2023-01-07T05:10:32.969Z,24.33
2023-01-07T05:13:06.867Z,27.55
2023-01-07T05:15:37.642Z,24.90
2023-01-07T05:18:07.255Z,26.40
2023-01-07T05:20:35.637Z,23.13
2023-01-07T05:23:05.676Z,25.02
2023-01-07T05:25:34.622Z,25.10
2023-01-07T05:28:02.726Z,23.67
2023-01-07T05:30:32.958Z,24.27
2023-01-07T05:33:02.400Z,24.13
2023-01-07T05:35:30.447Z,23.88
2023-01-07T05:37:58.522Z,21.80
2023-01-07T05:40:26.606Z,23.25
2023-01-07T05:42:54.628Z,23.33
2023-01-07T05:45:22.908Z,21.63
2023-01-07T05:47:51.024Z,23.40
2023-01-07T05:50:20.464Z,21.95
2023-01-07T05:52:48.517Z,23.38
2023-01-07T05:55:16.683Z,25.95
2023-01-07T05:57:44.800Z,24.75
2023-01-07T06:00:14.038Z,23.08
2023-01-07T06:02:42.047Z,22.42
2023-01-07T06:05:11.141Z,21.05
2023-01-07T06:07:40.573Z,20.83
2023-01-07T06:10:09.160Z,22.70
2023-01-07T06:12:37.175Z,23.38
2023-01-07T06:15:07.103Z,23.52
2023-01-07T06:17:35.448Z,21.73
2023-01-07T06:20:03.512Z,21.92
2023-01-07T06:22:31.629Z,21.13
2023-01-07T06:25:00.997Z,21.67
2023-01-07T06:27:29.052Z,23.25
2023-01-07T06:29:57.071Z,18.40
2023-01-07T06:32:25.157Z,19.45
2023-01-07T06:34:53.391Z,21.23
2023-01-07T06:37:21.391Z,19.58
2023-01-07T06:39:49.427Z,20.80
2023-01-07T06:42:18.831Z,20.63
2023-01-07T06:44:46.853Z,18.70
2023-01-07T06:47:14.909Z,18.65
2023-01-07T06:49:42.891Z,18.73
2023-01-07T06:52:10.966Z,18.27
2023-01-07T06:54:39.091Z,19.00
2023-01-07T06:57:07.154Z,17.33
2023-01-07T06:59:36.540Z,19.00
2023-01-07T07:02:04.801Z,18.42
2023-01-07T07:04:40.902Z,20.13
2023-01-07T07:07:09.051Z,17.05
2023-01-07T07:09:37.194Z,18.20
2023-01-07T07:12:05.687Z,16.42
2023-01-07T07:14:33.744Z,14.73
2023-01-07T07:17:03.385Z,16.70
2023-01-07T07:19:31.547Z,15.65
2023-01-07T07:21:59.763Z,15.77
2023-01-07T07:24:27.793Z,16.08
2023-01-07T07:26:55.820Z,15.77
2023-01-07T07:29:23.911Z,16.63
2023-01-07T07:31:51.930Z,17.23
2023-01-07T07:34:21.341Z,18.23
2023-01-07T07:36:49.443Z,15.35
2023-01-07T07:39:17.456Z,16.60
2023-01-07T07:41:45.696Z,17.05
2023-01-07T07:44:17.528Z,18.27
2023-01-07T07:46:45.651Z,14.95
2023-01-07T07:49:13.866Z,18.52
2023-01-07T07:51:43.291Z,15.35
2023-01-07T07:54:11.336Z,17.17
2023-01-07T07:56:39.384Z,15.25
2023-01-07T07:59:07.422Z,13.75
2023-01-07T08:01:37.339Z,15.73
2023-01-07T08:04:05.742Z,12.25
2023-01-07T08:06:34.344Z,16.55
2023-01-07T08:09:04.077Z,13.40
2023-01-07T08:11:32.161Z,17.17
2023-01-07T08:14:00.184Z,14.02
2023-01-07T08:16:28.280Z,15.10
2023-01-07T08:18:56.347Z,17.33
2023-01-07T08:21:24.401Z,14.60
2023-01-07T08:23:52.483Z,13.93
2023-01-07T08:26:21.863Z,16.58
2023-01-07T08:28:49.924Z,13.98
2023-01-07T08:31:17.979Z,16.27
2023-01-07T08:33:46.044Z,16.05
2023-01-07T08:36:22.623Z,16.27
2023-01-07T08:38:53.261Z,15.50
2023-01-07T08:41:24.458Z,14.65
2023-01-07T08:43:54.162Z,14.60
2023-01-07T08:46:22.252Z,15.35
2023-01-07T08:48:50.286Z,13.40
2023-01-07T08:51:18.465Z,14.23
2023-01-07T08:53:46.512Z,14.32
2023-01-07T08:56:14.534Z,13.52
2023-01-07T08:58:43.926Z,14.43
2023-01-07T09:01:12.121Z,16.92
2023-01-07T09:03:40.215Z,14.45
2023-01-07T09:06:09.083Z,13.07
2023-01-07T09:08:37.270Z,12.48
2023-01-07T09:11:06.308Z,18.52
2023-01-07T09:13:34.365Z,14.38
2023-01-07T09:16:03.816Z,12.10
2023-01-07T09:18:31.887Z,11.85
2023-01-07T09:20:59.900Z,14.55
2023-01-07T09:23:27.956Z,12.20
2023-01-07T09:25:55.967Z,12.57
2023-01-07T09:28:24.048Z,11.15
2023-01-07T09:30:52.081Z,14.23
2023-01-07T09:33:21.507Z,14.43
2023-01-07T09:35:49.522Z,13.82
2023-01-07T09:38:17.748Z,10.73
2023-01-07T09:40:46.609Z,9.68
2023-01-07T09:43:19.030Z,12.88
2023-01-07T09:45:50.903Z,9.18
2023-01-07T09:48:25.289Z,9.68
2023-01-07T09:50:56.737Z,11.82
2023-01-07T09:53:29.065Z,9.73
2023-01-07T09:56:11.373Z,9.20
2023-01-07T09:58:42.789Z,12.40
2023-01-07T10:01:24.160Z,12.07
2023-01-07T10:04:01.146Z,10.27
2023-01-07T10:06:43.453Z,9.13
2023-01-07T10:09:23.868Z,9.27
2023-01-07T10:12:03.072Z,12.02
2023-01-07T10:14:56.495Z,11.90
2023-01-07T10:17:37.049Z,10.82
2023-01-07T10:20:13.686Z,10.20
2023-01-07T10:22:50.113Z,7.68
2023-01-07T10:25:22.150Z,9.70
2023-01-07T10:27:52.546Z,8.80
2023-01-07T10:30:25.882Z,8.77
2023-01-07T10:33:00.871Z,10.63
2023-01-07T10:35:34.426Z,8.68
2023-01-07T10:38:05.882Z,11.38
2023-01-07T10:40:41.970Z,10.20
2023-01-07T10:43:23.933Z,10.57
2023-01-07T10:46:19.008Z,10.85
2023-01-07T10:49:14.692Z,10.52
2023-01-07T10:51:55.939Z,7.63
2023-01-07T10:54:43.173Z,9.77
2023-01-07T10:57:16.026Z,8.48
2023-01-07T10:59:50.035Z,8.88
2023-01-07T11:02:21.989Z,9.27
2023-01-07T11:04:50.448Z,11.32
2023-01-07T11:07:31.163Z,9.73
2023-01-07T11:10:04.234Z,8.13
2023-01-07T11:12:38.094Z,6.82
2023-01-07T11:15:14.740Z,8.15
2023-01-07T11:17:47.164Z,9.73
2023-01-07T11:20:15.187Z,8.57
2023-01-07T11:22:44.625Z,8.15
2023-01-07T11:25:29.711Z,6.60
2023-01-07T11:28:00.761Z,6.82
2023-01-07T11:30:30.208Z,7.25
2023-01-07T11:33:02.518Z,8.57
2023-01-07T11:35:30.783Z,7.45
2023-01-07T11:38:01.404Z,6.30
2023-01-07T11:40:31.216Z,6.60
2023-01-07T11:43:02.162Z,6.10
2023-01-07T11:45:34.060Z,7.38
2023-01-07T11:48:08.752Z,6.65
2023-01-07T11:50:40.065Z,8.07
2023-01-07T11:53:24.605Z,8.43
2023-01-07T11:56:01.565Z,11.48
2023-01-07T11:58:32.052Z,7.15
2023-01-07T12:01:14.576Z,8.55
2023-01-07T12:03:44.289Z,8.63
2023-01-07T12:06:19.147Z,7.68
2023-01-07T12:09:05.758Z,8.13
2023-01-07T12:11:36.513Z,7.45
2023-01-07T12:14:08.720Z,7.95
2023-01-07T12:16:37.352Z,7.00
2023-01-07T12:19:20.149Z,9.02
2023-01-07T12:21:59.578Z,7.88
2023-01-07T12:24:52.884Z,8.88
2023-01-07T12:27:32.463Z,6.90
2023-01-07T12:30:13.115Z,6.80
2023-01-07T12:32:48.724Z,9.02
2023-01-07T12:35:20.428Z,6.40
2023-01-07T12:37:53.654Z,5.18
2023-01-07T12:40:32.308Z,6.10
2023-01-07T12:43:05.206Z,8.73
2023-01-07T12:45:40.822Z,7.72
2023-01-07T12:48:16.888Z,7.60
2023-01-07T12:50:48.319Z,8.63
2023-01-07T12:53:20.467Z,7.72
2023-01-07T12:55:55.089Z,6.78
2023-01-07T12:58:33.897Z,7.70
2023-01-07T13:01:08.741Z,19.67
2023-01-07T13:03:45.379Z,12.70
2023-01-07T13:06:19.738Z,8.02
2023-01-07T13:08:55.719Z,10.77
2023-01-07T13:11:45.519Z,17.55
2023-01-07T13:14:22.242Z,11.02
2023-01-07T13:16:50.454Z,9.77
2023-01-07T13:19:18.617Z,10.82
2023-01-07T13:21:49.591Z,10.23
2023-01-07T13:24:55.612Z,20.45
2023-01-07T13:27:29.459Z,10.45
2023-01-07T13:30:11.885Z,6.97
2023-01-07T13:33:06.567Z,7.07
2023-01-07T13:35:47.143Z,8.52
2023-01-07T13:38:31.304Z,7.88
2023-01-07T13:41:12.980Z,8.05
2023-01-07T13:44:04.023Z,5.63
2023-01-07T13:46:34.379Z,6.68
2023-01-07T13:49:03.027Z,5.18
2023-01-07T13:51:34.023Z,6.50
2023-01-07T13:54:02.233Z,4.82
2023-01-07T13:56:34.113Z,5.68
2023-01-07T13:59:03.672Z,6.65
2023-01-07T14:01:33.610Z,7.18
2023-01-07T14:04:35.857Z,6.97
2023-01-07T14:07:09.989Z,4.40
2023-01-07T14:09:39.893Z,7.72
2023-01-07T14:12:52.688Z,7.72
2023-01-07T14:15:49.791Z,4.95
2023-01-07T14:18:48.525Z,6.30
2023-01-07T14:21:26.025Z,5.93
2023-01-07T14:24:08.332Z,6.47
2023-01-07T14:26:43.466Z,6.75
2023-01-07T14:29:41.712Z,6.03
2023-01-07T14:32:25.887Z,7.88
2023-01-07T14:34:56.939Z,7.05
2023-01-07T14:37:37.210Z,6.70
2023-01-07T14:40:42.846Z,4.18
2023-01-07T14:44:10.661Z,18.00
2023-01-07T14:46:49.659Z,22.27
2023-01-07T14:49:51.108Z,16.17
2023-01-07T14:52:36.014Z,7.38
2023-01-07T14:55:34.220Z,13.32
2023-01-07T14:58:21.163Z,8.70
2023-01-07T15:01:08.052Z,8.32
2023-01-07T15:03:54.267Z,6.90
2023-01-07T15:06:27.548Z,5.97
2023-01-07T15:09:21.393Z,8.75
2023-01-07T15:12:08.836Z,6.85
2023-01-07T15:15:00.634Z,8.57
2023-01-07T15:17:28.780Z,6.18
2023-01-07T15:19:57.968Z,5.03
2023-01-07T15:22:47.398Z,4.60
2023-01-07T15:25:27.062Z,9.90
2023-01-07T15:28:00.415Z,4.63
2023-01-07T15:30:41.128Z,8.98
2023-01-07T15:33:35.907Z,6.03
2023-01-07T15:36:06.322Z,5.78
2023-01-07T15:38:41.513Z,5.75
2023-01-07T15:41:25.968Z,6.88
2023-01-07T15:43:54.763Z,5.05
2023-01-07T15:46:23.651Z,5.03
2023-01-07T15:49:23.307Z,7.30
2023-01-07T15:51:54.543Z,5.82
2023-01-07T15:54:30.374Z,8.43
2023-01-07T15:57:01.597Z,5.97
2023-01-07T15:59:32.470Z,7.90
2023-01-07T16:02:05.360Z,10.05
2023-01-07T16:04:38.309Z,8.07
2023-01-07T16:07:07.664Z,8.35
2023-01-07T16:09:37.137Z,7.80
2023-01-07T16:12:21.135Z,8.45
2023-01-07T16:14:49.174Z,7.30
2023-01-07T16:17:18.578Z,7.15
2023-01-07T16:19:46.642Z,9.93
2023-01-07T16:22:17.115Z,8.15
2023-01-07T16:24:54.176Z,9.48
2023-01-07T16:27:29.286Z,9.25
2023-01-07T16:29:59.900Z,8.82
2023-01-07T16:32:28.439Z,7.35
2023-01-07T16:35:07.458Z,8.52
2023-01-07T16:37:40.396Z,9.40
2023-01-07T16:40:19.265Z,11.00
2023-01-07T16:42:48.277Z,8.50
2023-01-07T16:45:28.671Z,8.05
2023-01-07T16:48:16.759Z,7.28
2023-01-07T16:50:46.568Z,9.55
2023-01-07T16:53:24.191Z,12.20
2023-01-07T16:55:55.514Z,8.27
2023-01-07T16:58:29.980Z,8.00
2023-01-07T17:01:01.030Z,12.05
2023-01-07T17:03:31.112Z,50.33
2023-01-07T17:06:05.239Z,32.35
2023-01-07T17:08:34.199Z,52.03
2023-01-07T17:11:08.389Z,30.98
2023-01-07T17:13:39.273Z,19.08
2023-01-07T17:16:28.557Z,34.60
2023-01-07T17:18:57.837Z,22.15
2023-01-07T17:21:41.236Z,20.13
2023-01-07T17:24:47.254Z,28.50
2023-01-07T17:27:25.560Z,19.10
2023-01-07T17:29:54.327Z,24.30
2023-01-07T17:32:24.222Z,56.45
2023-01-07T17:34:52.401Z,42.00
2023-01-07T17:37:20.408Z,40.72
2023-01-07T17:39:51.110Z,9.75
2023-01-07T17:42:44.518Z,23.35
2023-01-07T17:45:17.235Z,30.20
2023-01-07T17:47:45.569Z,24.60
2023-01-07T17:50:15.492Z,29.02
2023-01-07T17:52:45.478Z,23.48
2023-01-07T17:55:19.369Z,22.25
2023-01-07T17:57:48.861Z,21.52
2023-01-07T18:00:20.143Z,27.92
2023-01-07T18:02:49.003Z,26.52
2023-01-07T18:05:19.544Z,14.88
2023-01-07T18:07:48.114Z,14.02
2023-01-07T18:10:18.178Z,22.15
2023-01-07T18:12:45.322Z,10.02
2023-01-07T18:15:21.669Z,14.05
2023-01-07T18:17:49.772Z,9.05
2023-01-07T18:20:19.239Z,6.47
2023-01-07T18:22:48.075Z,6.50
2023-01-07T18:25:18.437Z,5.47
2023-01-07T18:27:46.658Z,7.80
2023-01-07T18:30:19.167Z,10.00
2023-01-07T18:32:48.260Z,11.52
2023-01-07T18:35:19.047Z,11.75
2023-01-07T18:37:49.887Z,11.73
2023-01-07T18:40:18.827Z,10.93
2023-01-07T18:42:46.960Z,13.68
2023-01-07T18:45:15.683Z,13.07
2023-01-07T18:47:45.960Z,13.50
2023-01-07T18:50:14.396Z,20.02
2023-01-07T18:52:43.607Z,15.10
2023-01-07T18:55:12.742Z,18.02
2023-01-07T18:57:40.775Z,8.85
2023-01-07T19:00:10.346Z,10.90
2023-01-07T19:02:38.368Z,11.65
2023-01-07T19:05:08.767Z,9.40
2023-01-07T19:07:37.044Z,8.57
2023-01-07T19:10:05.912Z,9.35
2023-01-07T19:12:34.055Z,14.23
2023-01-07T19:15:02.120Z,9.27
2023-01-07T19:17:30.133Z,13.07
2023-01-07T19:19:58.215Z,13.35
2023-01-07T19:22:28.760Z,14.50
2023-01-07T19:24:56.968Z,9.75
2023-01-07T19:27:25.211Z,12.02
2023-01-07T19:29:53.208Z,25.27
2023-01-07T19:32:21.235Z,8.15
2023-01-07T19:34:52.294Z,8.48
2023-01-07T19:37:21.943Z,11.82
2023-01-07T19:39:51.463Z,17.05
2023-01-07T19:42:19.508Z,13.93
2023-01-07T19:44:47.496Z,10.65
2023-01-07T19:47:17.241Z,16.05
2023-01-07T19:49:45.646Z,13.32
2023-01-07T19:52:13.752Z,10.23
2023-01-07T19:54:42.276Z,14.25
2023-01-07T19:57:11.723Z,10.73
2023-01-07T19:59:39.745Z,12.85
2023-01-07T20:02:07.976Z,12.73
2023-01-07T20:04:36.097Z,16.17
2023-01-07T20:07:04.193Z,11.68
2023-01-07T20:09:32.867Z,14.10
2023-01-07T20:12:00.896Z,12.77
2023-01-07T20:14:30.317Z,8.75
2023-01-07T20:16:58.367Z,18.92
2023-01-07T20:19:27.247Z,12.48
2023-01-07T20:21:55.330Z,10.30
2023-01-07T20:24:23.334Z,10.82
2023-01-07T20:26:53.165Z,8.40
2023-01-07T20:29:22.534Z,10.07
2023-01-07T20:31:51.960Z,10.55
2023-01-07T20:34:20.089Z,11.45
2023-01-07T20:36:48.255Z,10.30
2023-01-07T20:39:16.272Z,10.70
2023-01-07T20:41:44.345Z,9.55
2023-01-07T20:44:13.217Z,8.98
2023-01-07T20:46:41.931Z,11.63
2023-01-07T20:49:12.503Z,9.88
2023-01-07T20:51:40.755Z,9.10
2023-01-07T20:54:08.974Z,9.13
2023-01-07T20:56:37.086Z,9.35
2023-01-07T20:59:05.112Z,9.90
2023-01-07T21:01:33.329Z,9.43
2023-01-07T21:04:01.906Z,10.40
2023-01-07T21:06:31.829Z,9.50
2023-01-07T21:09:00.115Z,10.57
2023-01-07T21:11:28.212Z,9.90
2023-01-07T21:13:56.530Z,9.93
2023-01-07T21:16:25.610Z,10.90
2023-01-07T21:18:53.772Z,8.52
2023-01-07T21:21:25.254Z,8.63
2023-01-07T21:23:55.019Z,11.57
2023-01-07T21:26:23.948Z,10.40
2023-01-07T21:28:55.760Z,10.90
2023-01-07T21:31:24.136Z,11.75
2023-01-07T21:33:55.172Z,10.80
2023-01-07T21:36:23.920Z,10.15
2023-01-07T21:38:56.389Z,9.02
2023-01-07T21:41:25.504Z,8.70
2023-01-07T21:43:53.661Z,10.48
2023-01-07T21:46:23.012Z,11.05
2023-01-07T21:48:51.884Z,12.82
2023-01-07T21:51:22.234Z,9.18
2023-01-07T21:53:52.034Z,10.98
2023-01-07T21:56:21.477Z,11.35
2023-01-07T21:58:50.078Z,13.95
2023-01-07T22:01:19.211Z,12.23
2023-01-07T22:03:49.407Z,10.90
2023-01-07T22:06:21.234Z,12.80
2023-01-07T22:08:49.998Z,11.07
2023-01-07T22:11:19.285Z,12.82
2023-01-07T22:13:52.391Z,9.68
2023-01-07T22:16:20.818Z,8.68
2023-01-07T22:18:49.562Z,10.57
2023-01-07T22:21:19.006Z,12.18
2023-01-07T22:23:47.931Z,11.27
2023-01-07T22:26:18.113Z,11.50
2023-01-07T22:28:50.104Z,12.05
2023-01-07T22:31:23.566Z,10.32
2023-01-07T22:33:52.375Z,10.25
2023-01-07T22:36:25.633Z,11.95
2023-01-07T22:38:55.207Z,11.77
2023-01-07T22:41:23.279Z,12.95
2023-01-07T22:43:51.340Z,10.15
2023-01-07T22:46:24.451Z,10.32
2023-01-07T22:48:53.415Z,11.32
2023-01-07T22:51:29.788Z,11.18
2023-01-07T22:54:00.495Z,12.82
2023-01-07T22:56:29.136Z,11.10
2023-01-07T22:58:57.132Z,11.05
2023-01-07T23:01:26.663Z,9.93
2023-01-07T23:03:54.742Z,10.25
2023-01-07T23:06:22.820Z,9.57
2023-01-07T23:08:50.824Z,11.00
2023-01-07T23:11:32.726Z,9.75
2023-01-07T23:14:00.782Z,9.23
2023-01-07T23:16:30.312Z,10.20
2023-01-07T23:18:58.409Z,10.32
2023-01-07T23:21:26.465Z,11.07
2023-01-07T23:23:54.459Z,11.57
2023-01-07T23:26:22.506Z,11.18
2023-01-07T23:28:50.551Z,8.70
2023-01-07T23:31:18.664Z,9.60
2023-01-07T23:33:48.105Z,9.05
2023-01-07T23:36:16.144Z,8.73
2023-01-07T23:38:44.283Z,8.75
2023-01-07T23:41:13.438Z,8.90
2023-01-07T23:43:41.475Z,8.10
2023-01-07T23:46:09.610Z,9.55
2023-01-07T23:48:39.095Z,9.07
2023-01-07T23:51:10.148Z,7.97
2023-01-07T23:53:38.575Z,10.85
2023-01-07T23:56:07.605Z,9.32
2023-01-07T23:58:36.325Z,8.93
